sensor_id;sensor_type;location;lat;lon;timestamp;P1;durP1;ratioP1;P2;durP2;ratioP2
7166;SDS011;3625;51.762;14.320;2022-10-13T00:01:23;8.80;;;5.83;;
7166;SDS011;3625;51.762;14.320;2022-10-13T00:03:52;13.47;;;6.47;;
7166;SDS011;3625;51.762;14.320;2022-10-13T00:06:22;10.00;;;6.30;;
7166;SDS011;3625;51.762;14.320;2022-10-13T00:08:52;15.53;;;7.53;;
7166;SDS011;3625;51.762;14.320;2022-10-13T00:11:22;13.83;;;6.67;;
7166;SDS011;3625;51.762;14.320;2022-10-13T00:13:55;12.27;;;6.13;;
7166;SDS011;3625;51.762;14.320;2022-10-13T00:16:28;9.20;;;6.80;;
7166;SDS011;3625;51.762;14.320;2022-10-13T00:18:57;12.43;;;7.13;;
7166;SDS011;3625;51.762;14.320;2022-10-13T00:21:26;10.23;;;6.37;;
7166;SDS011;3625;51.762;14.320;2022-10-13T00:23:55;7.43;;;5.93;;
7166;SDS011;3625;51.762;14.320;2022-10-13T00:26:24;14.07;;;6.60;;
7166;SDS011;3625;51.762;14.320;2022-10-13T00:28:55;11.03;;;7.10;;
7166;SDS011;3625;51.762;14.320;2022-10-13T00:31:25;10.27;;;6.40;;
7166;SDS011;3625;51.762;14.320;2022-10-13T00:33:55;10.20;;;7.30;;
7166;SDS011;3625;51.762;14.320;2022-10-13T00:36:26;12.20;;;6.97;;
7166;SDS011;3625;51.762;14.320;2022-10-13T00:38:56;13.47;;;6.93;;
7166;SDS011;3625;51.762;14.320;2022-10-13T00:41:25;10.23;;;6.70;;
7166;SDS011;3625;51.762;14.320;2022-10-13T00:43:58;9.67;;;6.60;;
7166;SDS011;3625;51.762;14.320;2022-10-13T00:46:29;14.33;;;7.80;;
7166;SDS011;3625;51.762;14.320;2022-10-13T00:49:01;9.80;;;7.70;;
7166;SDS011;3625;51.762;14.320;2022-10-13T00:51:35;13.83;;;7.17;;
7166;SDS011;3625;51.762;14.320;2022-10-13T00:54:09;12.33;;;7.30;;
7166;SDS011;3625;51.762;14.320;2022-10-13T00:56:42;11.33;;;7.10;;
7166;SDS011;3625;51.762;14.320;2022-10-13T00:59:14;12.30;;;7.27;;
7166;SDS011;3625;51.762;14.320;2022-10-13T01:01:51;9.77;;;6.27;;
7166;SDS011;3625;51.762;14.320;2022-10-13T01:04:21;9.70;;;7.60;;
7166;SDS011;3625;51.762;14.320;2022-10-13T01:06:54;9.73;;;7.00;;
7166;SDS011;3625;51.762;14.320;2022-10-13T01:09:24;12.47;;;6.90;;
7166;SDS011;3625;51.762;14.320;2022-10-13T01:12:01;12.97;;;7.10;;
7166;SDS011;3625;51.762;14.320;2022-10-13T01:14:47;10.33;;;6.80;;
7166;SDS011;3625;51.762;14.320;2022-10-13T01:17:26;10.27;;;7.40;;
7166;SDS011;3625;51.762;14.320;2022-10-13T01:20:12;12.67;;;7.50;;
7166;SDS011;3625;51.762;14.320;2022-10-13T01:26:41;11.10;;;8.60;;
7166;SDS011;3625;51.762;14.320;2022-10-13T01:35:46;10.77;;;7.33;;
7166;SDS011;3625;51.762;14.320;2022-10-13T01:38:34;9.90;;;6.70;;
7166;SDS011;3625;51.762;14.320;2022-10-13T01:41:12;13.33;;;7.87;;
7166;SDS011;3625;51.762;14.320;2022-10-13T01:43:51;13.50;;;8.37;;
7166;SDS011;3625;51.762;14.320;2022-10-13T01:46:29;11.20;;;7.83;;
7166;SDS011;3625;51.762;14.320;2022-10-13T01:49:03;13.47;;;7.23;;
7166;SDS011;3625;51.762;14.320;2022-10-13T01:51:35;13.13;;;7.50;;
7166;SDS011;3625;51.762;14.320;2022-10-13T01:54:06;13.97;;;7.97;;
7166;SDS011;3625;51.762;14.320;2022-10-13T01:56:35;14.13;;;8.43;;
7166;SDS011;3625;51.762;14.320;2022-10-13T01:59:05;10.73;;;7.63;;
7166;SDS011;3625;51.762;14.320;2022-10-13T02:01:46;11.70;;;7.97;;
7166;SDS011;3625;51.762;14.320;2022-10-13T02:04:30;10.37;;;8.47;;
7166;SDS011;3625;51.762;14.320;2022-10-13T02:07:17;11.27;;;7.93;;
7166;SDS011;3625;51.762;14.320;2022-10-13T02:09:54;12.53;;;8.57;;
7166;SDS011;3625;51.762;14.320;2022-10-13T02:12:31;13.17;;;8.03;;
7166;SDS011;3625;51.762;14.320;2022-10-13T02:15:09;12.03;;;8.13;;
7166;SDS011;3625;51.762;14.320;2022-10-13T02:17:45;14.10;;;9.27;;
7166;SDS011;3625;51.762;14.320;2022-10-13T02:20:13;11.03;;;7.93;;
7166;SDS011;3625;51.762;14.320;2022-10-13T02:22:46;10.17;;;7.53;;
7166;SDS011;3625;51.762;14.320;2022-10-13T02:25:20;11.57;;;7.90;;
7166;SDS011;3625;51.762;14.320;2022-10-13T02:27:50;10.63;;;8.27;;
7166;SDS011;3625;51.762;14.320;2022-10-13T02:30:21;13.23;;;7.77;;
7166;SDS011;3625;51.762;14.320;2022-10-13T02:32:53;13.27;;;7.90;;
7166;SDS011;3625;51.762;14.320;2022-10-13T02:35:22;12.40;;;7.47;;
7166;SDS011;3625;51.762;14.320;2022-10-13T02:37:52;11.63;;;8.27;;
7166;SDS011;3625;51.762;14.320;2022-10-13T02:40:20;19.17;;;8.27;;
7166;SDS011;3625;51.762;14.320;2022-10-13T02:42:49;12.50;;;7.93;;
7166;SDS011;3625;51.762;14.320;2022-10-13T02:45:17;12.93;;;8.90;;
7166;SDS011;3625;51.762;14.320;2022-10-13T02:47:48;13.40;;;9.00;;
7166;SDS011;3625;51.762;14.320;2022-10-13T02:50:18;9.90;;;8.37;;
7166;SDS011;3625;51.762;14.320;2022-10-13T02:52:48;12.17;;;8.27;;
7166;SDS011;3625;51.762;14.320;2022-10-13T02:55:17;11.93;;;8.50;;
7166;SDS011;3625;51.762;14.320;2022-10-13T02:57:50;15.27;;;8.37;;
7166;SDS011;3625;51.762;14.320;2022-10-13T03:00:19;10.83;;;7.73;;
7166;SDS011;3625;51.762;14.320;2022-10-13T03:02:47;11.90;;;8.33;;
7166;SDS011;3625;51.762;14.320;2022-10-13T03:05:16;12.03;;;8.90;;
7166;SDS011;3625;51.762;14.320;2022-10-13T03:07:46;11.13;;;7.87;;
7166;SDS011;3625;51.762;14.320;2022-10-13T03:10:15;10.47;;;8.07;;
7166;SDS011;3625;51.762;14.320;2022-10-13T03:12:44;12.77;;;8.40;;
7166;SDS011;3625;51.762;14.320;2022-10-13T03:15:12;13.57;;;8.20;;
7166;SDS011;3625;51.762;14.320;2022-10-13T03:17:41;10.87;;;8.53;;
7166;SDS011;3625;51.762;14.320;2022-10-13T03:20:10;11.87;;;8.10;;
7166;SDS011;3625;51.762;14.320;2022-10-13T03:22:40;12.47;;;7.73;;
7166;SDS011;3625;51.762;14.320;2022-10-13T03:25:15;10.87;;;7.90;;
7166;SDS011;3625;51.762;14.320;2022-10-13T03:27:43;11.93;;;7.77;;
7166;SDS011;3625;51.762;14.320;2022-10-13T03:30:12;13.50;;;8.70;;
7166;SDS011;3625;51.762;14.320;2022-10-13T03:32:41;11.57;;;8.90;;
7166;SDS011;3625;51.762;14.320;2022-10-13T03:35:09;15.70;;;8.87;;
7166;SDS011;3625;51.762;14.320;2022-10-13T03:37:39;11.27;;;8.80;;
7166;SDS011;3625;51.762;14.320;2022-10-13T03:40:08;11.27;;;7.53;;
7166;SDS011;3625;51.762;14.320;2022-10-13T03:42:39;14.17;;;8.43;;
7166;SDS011;3625;51.762;14.320;2022-10-13T03:45:07;11.23;;;7.73;;
7166;SDS011;3625;51.762;14.320;2022-10-13T03:47:36;11.93;;;8.23;;
7166;SDS011;3625;51.762;14.320;2022-10-13T03:50:05;13.10;;;8.50;;
7166;SDS011;3625;51.762;14.320;2022-10-13T03:52:36;10.90;;;8.20;;
7166;SDS011;3625;51.762;14.320;2022-10-13T03:55:06;12.90;;;7.77;;
7166;SDS011;3625;51.762;14.320;2022-10-13T03:57:35;11.90;;;8.33;;
7166;SDS011;3625;51.762;14.320;2022-10-13T04:00:04;13.23;;;8.13;;
7166;SDS011;3625;51.762;14.320;2022-10-13T04:02:37;12.37;;;9.27;;
7166;SDS011;3625;51.762;14.320;2022-10-13T04:05:06;13.00;;;8.67;;
7166;SDS011;3625;51.762;14.320;2022-10-13T04:07:35;15.50;;;9.23;;
7166;SDS011;3625;51.762;14.320;2022-10-13T04:10:18;12.27;;;8.83;;
7166;SDS011;3625;51.762;14.320;2022-10-13T04:12:47;13.67;;;9.27;;
7166;SDS011;3625;51.762;14.320;2022-10-13T04:15:16;16.67;;;8.27;;
7166;SDS011;3625;51.762;14.320;2022-10-13T04:17:44;11.60;;;8.20;;
7166;SDS011;3625;51.762;14.320;2022-10-13T04:20:13;10.63;;;7.60;;
7166;SDS011;3625;51.762;14.320;2022-10-13T04:22:42;12.30;;;7.70;;
7166;SDS011;3625;51.762;14.320;2022-10-13T04:25:10;11.47;;;8.60;;
7166;SDS011;3625;51.762;14.320;2022-10-13T04:27:40;13.37;;;8.03;;
7166;SDS011;3625;51.762;14.320;2022-10-13T04:30:09;10.63;;;8.33;;
7166;SDS011;3625;51.762;14.320;2022-10-13T04:32:39;11.40;;;8.23;;
7166;SDS011;3625;51.762;14.320;2022-10-13T04:35:09;11.03;;;9.17;;
7166;SDS011;3625;51.762;14.320;2022-10-13T04:37:38;11.50;;;9.20;;
7166;SDS011;3625;51.762;14.320;2022-10-13T04:40:10;11.17;;;8.60;;
7166;SDS011;3625;51.762;14.320;2022-10-13T04:42:40;13.37;;;8.23;;
7166;SDS011;3625;51.762;14.320;2022-10-13T04:45:09;9.37;;;7.93;;
7166;SDS011;3625;51.762;14.320;2022-10-13T04:47:40;12.17;;;8.33;;
7166;SDS011;3625;51.762;14.320;2022-10-13T04:50:08;14.30;;;8.70;;
7166;SDS011;3625;51.762;14.320;2022-10-13T04:52:37;14.63;;;8.80;;
7166;SDS011;3625;51.762;14.320;2022-10-13T04:55:06;13.50;;;8.30;;
7166;SDS011;3625;51.762;14.320;2022-10-13T04:57:35;15.40;;;9.37;;
7166;SDS011;3625;51.762;14.320;2022-10-13T05:00:06;12.63;;;8.50;;
7166;SDS011;3625;51.762;14.320;2022-10-13T05:02:36;11.97;;;8.63;;
7166;SDS011;3625;51.762;14.320;2022-10-13T05:05:05;12.40;;;9.53;;
7166;SDS011;3625;51.762;14.320;2022-10-13T05:07:34;14.67;;;8.70;;
7166;SDS011;3625;51.762;14.320;2022-10-13T05:10:03;12.23;;;8.60;;
7166;SDS011;3625;51.762;14.320;2022-10-13T05:12:32;13.60;;;8.43;;
7166;SDS011;3625;51.762;14.320;2022-10-13T05:15:01;13.17;;;9.00;;
7166;SDS011;3625;51.762;14.320;2022-10-13T05:17:31;14.10;;;9.17;;
7166;SDS011;3625;51.762;14.320;2022-10-13T05:20:06;13.53;;;9.20;;
7166;SDS011;3625;51.762;14.320;2022-10-13T05:22:36;14.10;;;8.40;;
7166;SDS011;3625;51.762;14.320;2022-10-13T05:25:05;12.93;;;9.90;;
7166;SDS011;3625;51.762;14.320;2022-10-13T05:27:34;13.73;;;9.30;;
7166;SDS011;3625;51.762;14.320;2022-10-13T05:30:08;11.93;;;8.87;;
7166;SDS011;3625;51.762;14.320;2022-10-13T05:32:39;16.43;;;9.27;;
7166;SDS011;3625;51.762;14.320;2022-10-13T05:35:08;12.33;;;9.33;;
7166;SDS011;3625;51.762;14.320;2022-10-13T05:37:38;11.50;;;8.07;;
7166;SDS011;3625;51.762;14.320;2022-10-13T05:40:07;11.60;;;8.83;;
7166;SDS011;3625;51.762;14.320;2022-10-13T05:42:37;14.30;;;9.17;;
7166;SDS011;3625;51.762;14.320;2022-10-13T05:45:09;11.23;;;9.23;;
7166;SDS011;3625;51.762;14.320;2022-10-13T05:47:40;14.87;;;9.93;;
7166;SDS011;3625;51.762;14.320;2022-10-13T05:50:08;14.00;;;9.43;;
7166;SDS011;3625;51.762;14.320;2022-10-13T05:52:38;16.97;;;9.30;;
7166;SDS011;3625;51.762;14.320;2022-10-13T05:55:07;15.23;;;9.77;;
7166;SDS011;3625;51.762;14.320;2022-10-13T05:57:41;11.70;;;8.73;;
7166;SDS011;3625;51.762;14.320;2022-10-13T06:00:18;14.87;;;9.77;;
7166;SDS011;3625;51.762;14.320;2022-10-13T06:02:48;11.53;;;9.40;;
7166;SDS011;3625;51.762;14.320;2022-10-13T06:05:22;13.87;;;8.70;;
7166;SDS011;3625;51.762;14.320;2022-10-13T06:07:54;14.47;;;8.50;;
7166;SDS011;3625;51.762;14.320;2022-10-13T06:10:23;12.87;;;9.23;;
7166;SDS011;3625;51.762;14.320;2022-10-13T06:12:52;12.27;;;8.67;;
7166;SDS011;3625;51.762;14.320;2022-10-13T06:15:21;12.47;;;8.77;;
7166;SDS011;3625;51.762;14.320;2022-10-13T06:17:56;12.73;;;8.57;;
7166;SDS011;3625;51.762;14.320;2022-10-13T06:20:24;15.43;;;10.17;;
7166;SDS011;3625;51.762;14.320;2022-10-13T06:22:53;15.27;;;9.57;;
7166;SDS011;3625;51.762;14.320;2022-10-13T06:25:22;12.80;;;10.20;;
7166;SDS011;3625;51.762;14.320;2022-10-13T06:27:50;18.70;;;10.77;;
7166;SDS011;3625;51.762;14.320;2022-10-13T06:30:19;14.73;;;10.20;;
7166;SDS011;3625;51.762;14.320;2022-10-13T06:32:48;13.60;;;9.80;;
7166;SDS011;3625;51.762;14.320;2022-10-13T06:35:17;13.93;;;10.33;;
7166;SDS011;3625;51.762;14.320;2022-10-13T06:37:46;13.57;;;9.67;;
7166;SDS011;3625;51.762;14.320;2022-10-13T06:40:15;14.23;;;10.17;;
7166;SDS011;3625;51.762;14.320;2022-10-13T06:42:47;16.37;;;9.90;;
7166;SDS011;3625;51.762;14.320;2022-10-13T06:45:20;19.27;;;10.73;;
7166;SDS011;3625;51.762;14.320;2022-10-13T06:47:51;14.13;;;11.07;;
7166;SDS011;3625;51.762;14.320;2022-10-13T06:50:21;16.40;;;11.30;;
7166;SDS011;3625;51.762;14.320;2022-10-13T06:52:51;15.80;;;10.50;;
7166;SDS011;3625;51.762;14.320;2022-10-13T06:55:21;11.50;;;8.67;;
7166;SDS011;3625;51.762;14.320;2022-10-13T06:57:50;12.90;;;8.93;;
7166;SDS011;3625;51.762;14.320;2022-10-13T07:00:18;13.30;;;9.27;;
7166;SDS011;3625;51.762;14.320;2022-10-13T07:02:48;15.17;;;9.20;;
7166;SDS011;3625;51.762;14.320;2022-10-13T07:05:18;15.13;;;9.47;;
7166;SDS011;3625;51.762;14.320;2022-10-13T07:07:50;12.70;;;8.83;;
7166;SDS011;3625;51.762;14.320;2022-10-13T07:10:19;16.10;;;10.00;;
7166;SDS011;3625;51.762;14.320;2022-10-13T07:12:48;14.60;;;9.13;;
7166;SDS011;3625;51.762;14.320;2022-10-13T07:15:16;14.87;;;8.87;;
7166;SDS011;3625;51.762;14.320;2022-10-13T07:17:47;18.27;;;9.67;;
7166;SDS011;3625;51.762;14.320;2022-10-13T07:20:17;12.80;;;8.80;;
7166;SDS011;3625;51.762;14.320;2022-10-13T07:22:46;17.43;;;9.93;;
7166;SDS011;3625;51.762;14.320;2022-10-13T07:25:17;13.17;;;8.87;;
7166;SDS011;3625;51.762;14.320;2022-10-13T07:27:46;14.53;;;8.47;;
7166;SDS011;3625;51.762;14.320;2022-10-13T07:30:15;13.03;;;8.37;;
7166;SDS011;3625;51.762;14.320;2022-10-13T07:32:57;12.13;;;8.37;;
7166;SDS011;3625;51.762;14.320;2022-10-13T07:35:26;13.63;;;8.97;;
7166;SDS011;3625;51.762;14.320;2022-10-13T07:37:57;10.17;;;8.77;;
7166;SDS011;3625;51.762;14.320;2022-10-13T07:40:26;11.67;;;9.17;;
7166;SDS011;3625;51.762;14.320;2022-10-13T07:42:54;10.67;;;7.67;;
7166;SDS011;3625;51.762;14.320;2022-10-13T07:45:23;12.87;;;8.60;;
7166;SDS011;3625;51.762;14.320;2022-10-13T07:47:52;14.37;;;9.53;;
7166;SDS011;3625;51.762;14.320;2022-10-13T07:50:21;13.63;;;9.80;;
7166;SDS011;3625;51.762;14.320;2022-10-13T07:52:49;12.47;;;9.43;;
7166;SDS011;3625;51.762;14.320;2022-10-13T07:55:19;10.63;;;8.10;;
7166;SDS011;3625;51.762;14.320;2022-10-13T07:57:51;14.50;;;8.57;;
7166;SDS011;3625;51.762;14.320;2022-10-13T08:00:20;11.47;;;8.53;;
7166;SDS011;3625;51.762;14.320;2022-10-13T08:02:49;10.13;;;8.40;;
7166;SDS011;3625;51.762;14.320;2022-10-13T08:05:17;8.97;;;7.93;;
7166;SDS011;3625;51.762;14.320;2022-10-13T08:07:46;13.63;;;8.37;;
7166;SDS011;3625;51.762;14.320;2022-10-13T08:10:22;15.23;;;8.80;;
7166;SDS011;3625;51.762;14.320;2022-10-13T08:12:51;11.30;;;8.43;;
7166;SDS011;3625;51.762;14.320;2022-10-13T08:15:20;13.00;;;8.60;;
7166;SDS011;3625;51.762;14.320;2022-10-13T08:17:50;12.63;;;8.60;;
7166;SDS011;3625;51.762;14.320;2022-10-13T08:20:24;12.93;;;9.90;;
7166;SDS011;3625;51.762;14.320;2022-10-13T08:23:08;15.13;;;10.23;;
7166;SDS011;3625;51.762;14.320;2022-10-13T08:25:48;13.20;;;9.17;;
7166;SDS011;3625;51.762;14.320;2022-10-13T08:28:18;11.17;;;8.27;;
7166;SDS011;3625;51.762;14.320;2022-10-13T08:30:51;12.03;;;8.43;;
7166;SDS011;3625;51.762;14.320;2022-10-13T08:33:20;9.47;;;7.73;;
7166;SDS011;3625;51.762;14.320;2022-10-13T08:35:49;13.27;;;8.87;;
7166;SDS011;3625;51.762;14.320;2022-10-13T08:38:18;9.55;;;8.07;;
7166;SDS011;3625;51.762;14.320;2022-10-13T08:40:48;12.17;;;8.80;;
7166;SDS011;3625;51.762;14.320;2022-10-13T08:43:19;12.65;;;8.88;;
7166;SDS011;3625;51.762;14.320;2022-10-13T08:45:50;11.52;;;8.15;;
7166;SDS011;3625;51.762;14.320;2022-10-13T08:48:29;13.38;;;9.27;;
7166;SDS011;3625;51.762;14.320;2022-10-13T08:51:02;11.23;;;8.05;;
7166;SDS011;3625;51.762;14.320;2022-10-13T08:53:35;12.40;;;9.15;;
7166;SDS011;3625;51.762;14.320;2022-10-13T08:56:09;12.90;;;9.88;;
7166;SDS011;3625;51.762;14.320;2022-10-13T08:58:47;10.77;;;8.43;;
7166;SDS011;3625;51.762;14.320;2022-10-13T09:01:20;10.30;;;8.15;;
7166;SDS011;3625;51.762;14.320;2022-10-13T09:03:51;13.68;;;9.48;;
7166;SDS011;3625;51.762;14.320;2022-10-13T09:06:22;14.07;;;9.30;;
7166;SDS011;3625;51.762;14.320;2022-10-13T09:08:55;11.75;;;7.82;;
7166;SDS011;3625;51.762;14.320;2022-10-13T09:11:27;14.35;;;9.45;;
7166;SDS011;3625;51.762;14.320;2022-10-13T09:14:00;12.98;;;9.52;;
7166;SDS011;3625;51.762;14.320;2022-10-13T09:16:33;12.57;;;8.52;;
7166;SDS011;3625;51.762;14.320;2022-10-13T09:19:12;11.27;;;8.77;;
7166;SDS011;3625;51.762;14.320;2022-10-13T09:21:47;11.60;;;8.93;;
7166;SDS011;3625;51.762;14.320;2022-10-13T09:24:17;15.75;;;10.20;;
7166;SDS011;3625;51.762;14.320;2022-10-13T09:26:50;14.88;;;9.88;;
7166;SDS011;3625;51.762;14.320;2022-10-13T09:29:35;13.35;;;9.70;;
7166;SDS011;3625;51.762;14.320;2022-10-13T09:32:06;11.95;;;9.35;;
7166;SDS011;3625;51.762;14.320;2022-10-13T09:34:45;12.43;;;9.65;;
7166;SDS011;3625;51.762;14.320;2022-10-13T09:37:16;14.30;;;9.13;;
7166;SDS011;3625;51.762;14.320;2022-10-13T09:39:48;14.88;;;9.98;;
7166;SDS011;3625;51.762;14.320;2022-10-13T09:42:30;15.07;;;8.90;;
7166;SDS011;3625;51.762;14.320;2022-10-13T09:45:00;9.85;;;8.30;;
7166;SDS011;3625;51.762;14.320;2022-10-13T09:47:41;14.85;;;9.90;;
7166;SDS011;3625;51.762;14.320;2022-10-13T09:50:18;11.77;;;8.80;;
7166;SDS011;3625;51.762;14.320;2022-10-13T09:52:52;13.40;;;10.25;;
7166;SDS011;3625;51.762;14.320;2022-10-13T09:55:37;12.77;;;9.13;;
7166;SDS011;3625;51.762;14.320;2022-10-13T09:58:09;12.93;;;9.25;;
7166;SDS011;3625;51.762;14.320;2022-10-13T10:00:47;13.57;;;9.57;;
7166;SDS011;3625;51.762;14.320;2022-10-13T10:03:20;13.65;;;9.25;;
7166;SDS011;3625;51.762;14.320;2022-10-13T10:05:53;16.35;;;10.25;;
7166;SDS011;3625;51.762;14.320;2022-10-13T10:08:25;14.70;;;10.20;;
7166;SDS011;3625;51.762;14.320;2022-10-13T10:11:26;11.60;;;9.15;;
7166;SDS011;3625;51.762;14.320;2022-10-13T10:14:00;12.45;;;9.68;;
7166;SDS011;3625;51.762;14.320;2022-10-13T10:16:43;15.23;;;9.25;;
7166;SDS011;3625;51.762;14.320;2022-10-13T10:19:21;11.48;;;9.10;;
7166;SDS011;3625;51.762;14.320;2022-10-13T10:21:56;12.82;;;8.48;;
7166;SDS011;3625;51.762;14.320;2022-10-13T10:24:40;17.70;;;8.98;;
7166;SDS011;3625;51.762;14.320;2022-10-13T10:27:20;11.55;;;8.43;;
7166;SDS011;3625;51.762;14.320;2022-10-13T10:29:59;10.30;;;8.07;;
7166;SDS011;3625;51.762;14.320;2022-10-13T10:32:34;13.60;;;9.20;;
7166;SDS011;3625;51.762;14.320;2022-10-13T10:35:17;16.95;;;9.15;;
7166;SDS011;3625;51.762;14.320;2022-10-13T10:37:58;15.07;;;9.02;;
7166;SDS011;3625;51.762;14.320;2022-10-13T10:40:47;14.40;;;8.68;;
7166;SDS011;3625;51.762;14.320;2022-10-13T10:43:29;10.23;;;8.77;;
7166;SDS011;3625;51.762;14.320;2022-10-13T10:46:13;12.00;;;8.80;;
7166;SDS011;3625;51.762;14.320;2022-10-13T10:48:45;10.38;;;8.25;;
7166;SDS011;3625;51.762;14.320;2022-10-13T10:51:16;12.05;;;8.55;;
7166;SDS011;3625;51.762;14.320;2022-10-13T10:53:53;13.43;;;9.40;;
7166;SDS011;3625;51.762;14.320;2022-10-13T10:56:38;10.85;;;9.32;;
7166;SDS011;3625;51.762;14.320;2022-10-13T10:59:17;12.05;;;8.73;;
7166;SDS011;3625;51.762;14.320;2022-10-13T11:02:00;9.98;;;8.48;;
7166;SDS011;3625;51.762;14.320;2022-10-13T11:04:42;11.48;;;7.97;;
7166;SDS011;3625;51.762;14.320;2022-10-13T11:07:12;11.02;;;8.68;;
7166;SDS011;3625;51.762;14.320;2022-10-13T11:10:20;11.68;;;8.52;;
7166;SDS011;3625;51.762;14.320;2022-10-13T11:13:14;11.60;;;8.48;;
7166;SDS011;3625;51.762;14.320;2022-10-13T11:15:46;11.23;;;8.52;;
7166;SDS011;3625;51.762;14.320;2022-10-13T11:25:00;12.10;;;8.82;;
7166;SDS011;3625;51.762;14.320;2022-10-13T11:27:45;10.18;;;7.95;;
7166;SDS011;3625;51.762;14.320;2022-10-13T11:33:31;13.20;;;10.48;;
7166;SDS011;3625;51.762;14.320;2022-10-13T11:46:00;12.45;;;7.18;;
7166;SDS011;3625;51.762;14.320;2022-10-13T11:52:16;9.43;;;6.35;;
7166;SDS011;3625;51.762;14.320;2022-10-13T11:55:10;8.60;;;7.50;;
7166;SDS011;3625;51.762;14.320;2022-10-13T11:58:18;11.30;;;7.43;;
7166;SDS011;3625;51.762;14.320;2022-10-13T12:00:51;9.50;;;7.03;;
7166;SDS011;3625;51.762;14.320;2022-10-13T12:07:43;10.52;;;7.13;;
7166;SDS011;3625;51.762;14.320;2022-10-13T12:10:17;10.32;;;6.25;;
7166;SDS011;3625;51.762;14.320;2022-10-13T12:12:57;10.30;;;6.28;;
7166;SDS011;3625;51.762;14.320;2022-10-13T12:15:29;9.18;;;6.35;;
7166;SDS011;3625;51.762;14.320;2022-10-13T12:18:18;8.98;;;6.85;;
7166;SDS011;3625;51.762;14.320;2022-10-13T12:20:54;8.82;;;6.57;;
7166;SDS011;3625;51.762;14.320;2022-10-13T12:23:25;8.48;;;6.25;;
7166;SDS011;3625;51.762;14.320;2022-10-13T12:29:27;11.23;;;7.15;;
7166;SDS011;3625;51.762;14.320;2022-10-13T12:32:02;7.97;;;6.75;;
7166;SDS011;3625;51.762;14.320;2022-10-13T12:34:44;10.35;;;7.30;;
7166;SDS011;3625;51.762;14.320;2022-10-13T12:37:14;11.55;;;8.10;;
7166;SDS011;3625;51.762;14.320;2022-10-13T12:39:55;9.85;;;6.97;;
7166;SDS011;3625;51.762;14.320;2022-10-13T12:42:26;11.38;;;7.28;;
7166;SDS011;3625;51.762;14.320;2022-10-13T12:44:58;13.13;;;6.95;;
7166;SDS011;3625;51.762;14.320;2022-10-13T12:47:37;10.40;;;7.38;;
7166;SDS011;3625;51.762;14.320;2022-10-13T12:50:20;9.88;;;7.22;;
7166;SDS011;3625;51.762;14.320;2022-10-13T12:53:11;13.02;;;7.63;;
7166;SDS011;3625;51.762;14.320;2022-10-13T12:55:53;9.70;;;7.25;;
7166;SDS011;3625;51.762;14.320;2022-10-13T12:58:25;11.65;;;7.38;;
7166;SDS011;3625;51.762;14.320;2022-10-13T13:00:59;11.48;;;7.95;;
7166;SDS011;3625;51.762;14.320;2022-10-13T13:03:35;9.15;;;7.32;;
7166;SDS011;3625;51.762;14.320;2022-10-13T13:06:07;12.63;;;8.10;;
7166;SDS011;3625;51.762;14.320;2022-10-13T13:12:20;7.68;;;6.53;;
7166;SDS011;3625;51.762;14.320;2022-10-13T13:14:54;9.75;;;7.43;;
7166;SDS011;3625;51.762;14.320;2022-10-13T13:17:27;9.45;;;6.95;;
7166;SDS011;3625;51.762;14.320;2022-10-13T13:20:19;11.07;;;6.82;;
7166;SDS011;3625;51.762;14.320;2022-10-13T13:22:53;10.90;;;6.65;;
7166;SDS011;3625;51.762;14.320;2022-10-13T13:25:22;9.63;;;7.35;;
7166;SDS011;3625;51.762;14.320;2022-10-13T13:27:52;10.60;;;8.07;;
7166;SDS011;3625;51.762;14.320;2022-10-13T13:30:21;11.38;;;7.50;;
7166;SDS011;3625;51.762;14.320;2022-10-13T13:32:51;8.90;;;6.35;;
7166;SDS011;3625;51.762;14.320;2022-10-13T13:35:19;11.25;;;7.35;;
7166;SDS011;3625;51.762;14.320;2022-10-13T13:37:48;9.38;;;6.90;;
7166;SDS011;3625;51.762;14.320;2022-10-13T13:40:19;7.95;;;7.10;;
7166;SDS011;3625;51.762;14.320;2022-10-13T13:42:53;10.05;;;7.28;;
7166;SDS011;3625;51.762;14.320;2022-10-13T13:45:26;7.68;;;6.68;;
7166;SDS011;3625;51.762;14.320;2022-10-13T13:47:55;11.50;;;7.35;;
7166;SDS011;3625;51.762;14.320;2022-10-13T13:50:26;12.40;;;7.32;;
7166;SDS011;3625;51.762;14.320;2022-10-13T13:53:00;12.45;;;7.65;;
7166;SDS011;3625;51.762;14.320;2022-10-13T13:55:29;10.70;;;7.30;;
7166;SDS011;3625;51.762;14.320;2022-10-13T13:58:00;9.60;;;6.80;;
7166;SDS011;3625;51.762;14.320;2022-10-13T14:00:29;11.95;;;7.65;;
7166;SDS011;3625;51.762;14.320;2022-10-13T14:02:57;9.75;;;6.38;;
7166;SDS011;3625;51.762;14.320;2022-10-13T14:05:26;11.43;;;7.05;;
7166;SDS011;3625;51.762;14.320;2022-10-13T14:07:54;8.90;;;7.22;;
7166;SDS011;3625;51.762;14.320;2022-10-13T14:10:25;9.77;;;7.35;;
7166;SDS011;3625;51.762;14.320;2022-10-13T14:12:56;13.20;;;7.80;;
7166;SDS011;3625;51.762;14.320;2022-10-13T14:15:27;11.05;;;8.25;;
7166;SDS011;3625;51.762;14.320;2022-10-13T14:17:56;12.07;;;7.55;;
7166;SDS011;3625;51.762;14.320;2022-10-13T14:20:25;10.38;;;7.15;;
7166;SDS011;3625;51.762;14.320;2022-10-13T14:22:54;10.52;;;6.60;;
7166;SDS011;3625;51.762;14.320;2022-10-13T14:25:23;11.02;;;7.22;;
7166;SDS011;3625;51.762;14.320;2022-10-13T14:27:51;8.27;;;6.47;;
7166;SDS011;3625;51.762;14.320;2022-10-13T14:30:20;11.60;;;8.27;;
7166;SDS011;3625;51.762;14.320;2022-10-13T14:32:50;9.50;;;7.55;;
7166;SDS011;3625;51.762;14.320;2022-10-13T14:35:21;10.18;;;7.13;;
7166;SDS011;3625;51.762;14.320;2022-10-13T14:37:49;12.25;;;7.10;;
7166;SDS011;3625;51.762;14.320;2022-10-13T14:40:18;10.98;;;7.57;;
7166;SDS011;3625;51.762;14.320;2022-10-13T14:42:47;11.40;;;6.97;;
7166;SDS011;3625;51.762;14.320;2022-10-13T14:45:16;10.18;;;6.82;;
7166;SDS011;3625;51.762;14.320;2022-10-13T14:47:44;9.68;;;7.15;;
7166;SDS011;3625;51.762;14.320;2022-10-13T14:50:14;14.35;;;10.57;;
7166;SDS011;3625;51.762;14.320;2022-10-13T14:52:44;10.32;;;7.75;;
7166;SDS011;3625;51.762;14.320;2022-10-13T14:55:13;10.75;;;7.47;;
7166;SDS011;3625;51.762;14.320;2022-10-13T14:57:41;8.80;;;6.20;;
7166;SDS011;3625;51.762;14.320;2022-10-13T15:00:12;8.10;;;6.70;;
7166;SDS011;3625;51.762;14.320;2022-10-13T15:02:41;10.30;;;6.63;;
7166;SDS011;3625;51.762;14.320;2022-10-13T15:05:10;10.60;;;6.45;;
7166;SDS011;3625;51.762;14.320;2022-10-13T15:07:40;7.70;;;6.65;;
7166;SDS011;3625;51.762;14.320;2022-10-13T15:10:09;7.97;;;6.57;;
7166;SDS011;3625;51.762;14.320;2022-10-13T15:12:38;12.13;;;6.78;;
7166;SDS011;3625;51.762;14.320;2022-10-13T15:15:07;12.70;;;7.63;;
7166;SDS011;3625;51.762;14.320;2022-10-13T15:17:37;8.68;;;6.85;;
7166;SDS011;3625;51.762;14.320;2022-10-13T15:20:06;11.93;;;6.78;;
7166;SDS011;3625;51.762;14.320;2022-10-13T15:22:35;10.00;;;6.57;;
7166;SDS011;3625;51.762;14.320;2022-10-13T15:25:09;8.48;;;7.28;;
7166;SDS011;3625;51.762;14.320;2022-10-13T15:27:38;10.70;;;7.72;;
7166;SDS011;3625;51.762;14.320;2022-10-13T15:30:08;10.45;;;7.55;;
7166;SDS011;3625;51.762;14.320;2022-10-13T15:32:37;11.93;;;7.85;;
7166;SDS011;3625;51.762;14.320;2022-10-13T15:35:06;11.48;;;7.30;;
7166;SDS011;3625;51.762;14.320;2022-10-13T15:37:38;16.33;;;9.48;;
7166;SDS011;3625;51.762;14.320;2022-10-13T15:40:11;11.85;;;7.93;;
7166;SDS011;3625;51.762;14.320;2022-10-13T15:42:40;9.32;;;7.43;;
7166;SDS011;3625;51.762;14.320;2022-10-13T15:45:09;12.73;;;9.43;;
7166;SDS011;3625;51.762;14.320;2022-10-13T15:47:38;10.95;;;8.13;;
7166;SDS011;3625;51.762;14.320;2022-10-13T15:50:07;11.52;;;7.78;;
7166;SDS011;3625;51.762;14.320;2022-10-13T15:52:37;9.23;;;7.82;;
7166;SDS011;3625;51.762;14.320;2022-10-13T15:55:07;10.50;;;7.65;;
7166;SDS011;3625;51.762;14.320;2022-10-13T15:57:38;10.80;;;7.80;;
7166;SDS011;3625;51.762;14.320;2022-10-13T16:00:07;11.70;;;7.95;;
7166;SDS011;3625;51.762;14.320;2022-10-13T16:02:39;12.45;;;9.32;;
7166;SDS011;3625;51.762;14.320;2022-10-13T16:05:09;11.65;;;8.70;;